Time;durP1;ratioP1;P1;durP2;ratioP2;P2;SDS_P1;SDS_P2;PMS_P1;PMS_P2;Temp;Humidity;BMP_temperature;BMP_pressure;BME280_temperature;BME280_humidity;BME280_pressure;Samples;Min_cycle;Max_cycle;Signal;HPM_P1;HPM_P2
2023/03/08 00:01:13;;;;;;;17.52;10.02;;;;;;;;;;6295635;28;20143;-74
2023/03/08 00:04:15;;;;;;;15.32;9.93;;;;;;;;;;6299466;28;20328;-74
2023/03/08 00:07:17;;;;;;;17.73;10.32;;;;;;;;;;6303270;28;20056;-73
2023/03/08 00:10:19;;;;;;;18.30;9.85;;;;;;;;;;6301604;28;20056;-74
2023/03/08 00:13:22;;;;;;;19.30;10.02;;;;;;;;;;6300928;28;20053;-74
2023/03/08 00:16:37;;;;;;;;;;;;;;;;;;;;;
2023/03/08 00:19:39;;;;;;;18.40;10.30;;;;;;;;;;6297840;28;20222;-74
2023/03/08 00:22:42;;;;;;;18.73;9.93;;;;;;;;;;6299452;28;20053;-73
2023/03/08 00:25:44;;;;;;;19.02;9.27;;;;;;;;;;6298335;28;20345;-74
2023/03/08 00:28:47;;;;;;;19.23;10.57;;;;;;;;;;6296868;28;20337;-74
2023/03/08 00:31:49;;;;;;;18.60;10.37;;;;;;;;;;6298600;28;20062;-74
2023/03/08 00:34:51;;;;;;;27.65;11.10;;;;;;;;;;6299766;28;20052;-74
2023/03/08 00:37:53;;;;;;;18.13;10.93;;;;;;;;;;6299176;28;20198;-73
2023/03/08 00:40:55;;;;;;;21.45;11.10;;;;;;;;;;6302188;28;20218;-74
2023/03/08 00:43:58;;;;;;;19.30;10.13;;;;;;;;;;6298446;28;20117;-74
2023/03/08 00:47:00;;;;;;;18.52;10.70;;;;;;;;;;6300850;28;20070;-74
2023/03/08 00:50:02;;;;;;;20.23;11.35;;;;;;;;;;6297643;28;20671;-72
2023/03/08 00:53:03;;;;;;;19.45;11.43;;;;;;;;;;6297570;28;20045;-73
2023/03/08 00:56:06;;;;;;;21.17;10.98;;;;;;;;;;6297850;28;20358;-74
2023/03/08 00:59:09;;;;;;;18.48;11.23;;;;;;;;;;6299199;28;20048;-73
2023/03/08 01:02:11;;;;;;;22.48;12.80;;;;;;;;;;6297060;28;20087;-74
2023/03/08 01:05:13;;;;;;;22.55;12.40;;;;;;;;;;6298330;28;20217;-74
2023/03/08 01:08:15;;;;;;;22.95;11.98;;;;;;;;;;6297926;28;20119;-75
2023/03/08 01:11:18;;;;;;;26.73;12.35;;;;;;;;;;6298395;28;20348;-76
2023/03/08 01:14:21;;;;;;;20.75;12.27;;;;;;;;;;6297489;28;20053;-77
2023/03/08 01:17:23;;;;;;;19.92;12.23;;;;;;;;;;6303692;28;20059;-78
2023/03/08 01:20:25;;;;;;;20.45;12.90;;;;;;;;;;6303531;28;20322;-77
2023/03/08 01:23:27;;;;;;;23.00;13.25;;;;;;;;;;6301273;28;20068;-76
2023/03/08 01:26:30;;;;;;;20.98;11.27;;;;;;;;;;6302793;28;20077;-77
2023/03/08 01:29:33;;;;;;;22.42;12.43;;;;;;;;;;6302902;28;20051;-76
2023/03/08 01:32:35;;;;;;;18.20;12.38;;;;;;;;;;6301432;28;20059;-76
2023/03/08 01:35:37;;;;;;;21.52;12.55;;;;;;;;;;6300674;28;20063;-73
2023/03/08 01:38:39;;;;;;;22.30;12.63;;;;;;;;;;6303916;28;20047;-76
2023/03/08 01:41:41;;;;;;;23.23;12.32;;;;;;;;;;6294887;28;20045;-75
2023/03/08 01:44:52;;;;;;;25.63;12.75;;;;;;;;;;6300550;28;20106;-75
2023/03/08 01:47:54;;;;;;;22.10;12.55;;;;;;;;;;6303825;28;20185;-75
2023/03/08 01:50:56;;;;;;;22.45;12.60;;;;;;;;;;6301726;28;20210;-74
2023/03/08 01:54:00;;;;;;;21.80;13.05;;;;;;;;;;6299354;28;20085;-73
2023/03/08 01:57:03;;;;;;;25.88;13.05;;;;;;;;;;6297888;28;20079;-75
2023/03/08 02:00:09;;;;;;;20.50;12.10;;;;;;;;;;6299987;28;20348;-76
2023/03/08 02:03:12;;;;;;;21.88;12.88;;;;;;;;;;6298448;28;20135;-76
2023/03/08 02:06:15;;;;;;;20.17;12.35;;;;;;;;;;6297051;28;20417;-72
2023/03/08 02:09:16;;;;;;;19.02;12.27;;;;;;;;;;6295373;28;20052;-74
2023/03/08 02:12:19;;;;;;;20.52;12.88;;;;;;;;;;6297181;28;20056;-75
2023/03/08 02:15:23;;;;;;;24.27;12.90;;;;;;;;;;6299063;28;20041;-74
2023/03/08 02:18:26;;;;;;;23.23;12.63;;;;;;;;;;6298060;28;20056;-75
2023/03/08 02:21:32;;;;;;;22.23;13.47;;;;;;;;;;6303573;28;20044;-76
2023/03/08 02:24:36;;;;;;;23.10;12.73;;;;;;;;;;6303456;28;20126;-75
2023/03/08 02:27:37;;;;;;;20.45;12.48;;;;;;;;;;6304008;28;20114;-75
2023/03/08 02:30:39;;;;;;;26.08;12.77;;;;;;;;;;6303130;28;20044;-75
2023/03/08 02:33:41;;;;;;;18.23;12.60;;;;;;;;;;6303939;28;20058;-75
2023/03/08 02:36:43;;;;;;;20.75;12.52;;;;;;;;;;6304021;28;20229;-75
2023/03/08 02:39:46;;;;;;;21.50;12.25;;;;;;;;;;6304904;28;20048;-75
2023/03/08 02:42:48;;;;;;;19.55;12.60;;;;;;;;;;6303994;28;20060;-74
2023/03/08 02:45:49;;;;;;;20.05;12.32;;;;;;;;;;6303075;28;20056;-75
2023/03/08 02:48:51;;;;;;;26.70;13.43;;;;;;;;;;6303292;28;20052;-73
2023/03/08 02:51:53;;;;;;;22.02;12.48;;;;;;;;;;6298643;28;20048;-75
2023/03/08 02:54:56;;;;;;;21.35;12.00;;;;;;;;;;6297671;28;20217;-73
2023/03/08 02:57:58;;;;;;;21.23;12.52;;;;;;;;;;6296443;28;20089;-75
2023/03/08 03:00:59;;;;;;;22.98;13.32;;;;;;;;;;6300824;28;20056;-75
2023/03/08 03:04:01;;;;;;;21.17;13.25;;;;;;;;;;6294513;28;20052;-75
2023/03/08 03:07:03;;;;;;;22.35;12.63;;;;;;;;;;6296557;28;20261;-75
2023/03/08 03:10:09;;;;;;;22.00;12.57;;;;;;;;;;6295074;28;20068;-74
2023/03/08 03:13:10;;;;;;;22.60;12.43;;;;;;;;;;6296021;28;20051;-75
2023/03/08 03:16:14;;;;;;;24.42;13.02;;;;;;;;;;6294942;28;20233;-74
2023/03/08 03:19:16;;;;;;;23.27;13.32;;;;;;;;;;6299270;28;20056;-75
2023/03/08 03:22:18;;;;;;;28.17;12.30;;;;;;;;;;6296584;28;20067;-75
2023/03/08 03:25:21;;;;;;;23.80;13.05;;;;;;;;;;6295417;28;20061;-75
2023/03/08 03:28:23;;;;;;;19.98;12.45;;;;;;;;;;6298183;28;20051;-73
2023/03/08 03:31:25;;;;;;;21.70;12.68;;;;;;;;;;6298516;28;20276;-75
2023/03/08 03:34:28;;;;;;;22.92;13.13;;;;;;;;;;6298029;28;20040;-74
2023/03/08 03:37:30;;;;;;;21.13;12.65;;;;;;;;;;6297700;28;20056;-74
2023/03/08 03:40:33;;;;;;;22.77;13.18;;;;;;;;;;6300634;28;20086;-74
2023/03/08 03:43:35;;;;;;;25.52;12.98;;;;;;;;;;6299388;28;20075;-76
2023/03/08 03:46:38;;;;;;;18.73;11.65;;;;;;;;;;6299651;28;20048;-75
2023/03/08 03:49:40;;;;;;;21.23;12.70;;;;;;;;;;6302739;28;20071;-75
2023/03/08 03:52:41;;;;;;;22.15;13.50;;;;;;;;;;6301199;28;20059;-75
2023/03/08 03:55:44;;;;;;;25.05;13.70;;;;;;;;;;6300172;28;20074;-73
2023/03/08 03:58:46;;;;;;;19.63;12.43;;;;;;;;;;6301256;28;20075;-74
2023/03/08 04:01:48;;;;;;;24.05;13.23;;;;;;;;;;6299750;28;20218;-75
2023/03/08 04:04:50;;;;;;;22.65;12.27;;;;;;;;;;6301134;28;20341;-75
2023/03/08 04:07:52;;;;;;;21.42;12.35;;;;;;;;;;6299304;28;20060;-75
2023/03/08 04:11:00;;;;;;;25.20;13.32;;;;;;;;;;6300838;28;20052;-75
2023/03/08 04:14:01;;;;;;;23.63;12.50;;;;;;;;;;6299981;28;20102;-75
2023/03/08 04:17:04;;;;;;;21.90;12.20;;;;;;;;;;6299769;28;21704;-75
2023/03/08 04:20:07;;;;;;;20.50;12.23;;;;;;;;;;6303094;28;20051;-74
2023/03/08 04:23:09;;;;;;;23.88;12.20;;;;;;;;;;6300135;28;20252;-75
2023/03/08 04:26:12;;;;;;;20.55;12.52;;;;;;;;;;6299195;28;20066;-74
2023/03/08 04:29:14;;;;;;;23.50;12.47;;;;;;;;;;6300652;28;20056;-75
2023/03/08 04:32:16;;;;;;;22.90;12.90;;;;;;;;;;6298813;28;20052;-75
2023/03/08 04:35:18;;;;;;;23.67;12.57;;;;;;;;;;6300968;28;20051;-75
2023/03/08 04:38:19;;;;;;;22.45;12.32;;;;;;;;;;6301134;28;20051;-75
2023/03/08 04:41:23;;;;;;;20.02;12.43;;;;;;;;;;6300123;28;20062;-75
2023/03/08 04:44:25;;;;;;;21.13;11.52;;;;;;;;;;6299680;28;20337;-74
2023/03/08 04:47:26;;;;;;;19.63;11.68;;;;;;;;;;6299711;28;20216;-75
2023/03/08 04:50:28;;;;;;;26.42;13.73;;;;;;;;;;6300908;28;20067;-74
2023/03/08 04:53:31;;;;;;;20.27;12.52;;;;;;;;;;6299187;28;20267;-75
2023/03/08 04:56:34;;;;;;;22.35;11.90;;;;;;;;;;6297838;28;20040;-75
2023/03/08 04:59:36;;;;;;;20.27;10.93;;;;;;;;;;6299084;28;20037;-73
2023/03/08 05:02:38;;;;;;;19.98;11.25;;;;;;;;;;6297648;28;20056;-75
2023/03/08 05:05:45;;;;;;;18.63;10.95;;;;;;;;;;6298789;28;20052;-74
2023/03/08 05:08:47;;;;;;;19.40;10.40;;;;;;;;;;6299060;28;20110;-75
2023/03/08 05:11:50;;;;;;;17.73;10.57;;;;;;;;;;6298860;28;20064;-75
2023/03/08 05:14:52;;;;;;;19.50;10.70;;;;;;;;;;6297974;28;20072;-75
2023/03/08 05:17:54;;;;;;;19.95;11.10;;;;;;;;;;6298165;28;20051;-75
2023/03/08 05:20:56;;;;;;;22.77;11.07;;;;;;;;;;6298825;28;20064;-75
2023/03/08 05:23:59;;;;;;;17.83;10.48;;;;;;;;;;6298606;28;20052;-74
2023/03/08 05:27:03;;;;;;;17.23;10.18;;;;;;;;;;6298814;28;20076;-75
2023/03/08 05:30:06;;;;;;;15.43;10.05;;;;;;;;;;6298122;28;20064;-73
2023/03/08 05:33:08;;;;;;;22.58;9.98;;;;;;;;;;6299361;28;20221;-75
2023/03/08 05:36:11;;;;;;;20.15;10.35;;;;;;;;;;6298082;28;20056;-74
2023/03/08 05:39:12;;;;;;;17.15;9.73;;;;;;;;;;6295459;28;20063;-74
2023/03/08 05:42:16;;;;;;;21.30;11.77;;;;;;;;;;6297404;28;20053;-75
2023/03/08 05:45:17;;;;;;;20.50;10.43;;;;;;;;;;6299252;28;20067;-74
2023/03/08 05:48:19;;;;;;;17.55;10.93;;;;;;;;;;6299812;28;20052;-75
2023/03/08 05:51:21;;;;;;;21.08;11.13;;;;;;;;;;6300506;28;20063;-73
2023/03/08 05:54:22;;;;;;;22.15;11.18;;;;;;;;;;6299007;28;20056;-75
2023/03/08 05:57:25;;;;;;;22.23;11.27;;;;;;;;;;6295454;28;20082;-76
2023/03/08 06:00:27;;;;;;;22.95;11.23;;;;;;;;;;6297007;28;20087;-75
2023/03/08 06:03:29;;;;;;;21.35;11.10;;;;;;;;;;6298324;28;20093;-78
2023/03/08 06:06:31;;;;;;;18.48;10.63;;;;;;;;;;6298747;28;20048;-75
2023/03/08 06:09:33;;;;;;;20.52;10.95;;;;;;;;;;6294579;28;20052;-76
2023/03/08 06:12:38;;;;;;;23.05;11.55;;;;;;;;;;6298085;28;20052;-76
2023/03/08 06:15:40;;;;;;;18.67;11.05;;;;;;;;;;6296988;28;20066;-77
2023/03/08 06:18:43;;;;;;;15.35;9.60;;;;;;;;;;6297136;28;20080;-74
2023/03/08 06:21:45;;;;;;;16.95;10.52;;;;;;;;;;6293397;28;20072;-75
2023/03/08 06:24:48;;;;;;;14.00;10.13;;;;;;;;;;6298087;28;20098;-76
2023/03/08 06:27:51;;;;;;;19.13;9.90;;;;;;;;;;6297978;28;20052;-75
2023/03/08 06:30:54;;;;;;;17.70;10.73;;;;;;;;;;6296515;28;20076;-75
2023/03/08 06:33:55;;;;;;;21.00;10.25;;;;;;;;;;6296448;28;20056;-75
2023/03/08 06:36:58;;;;;;;19.38;9.35;;;;;;;;;;6298451;28;20048;-75
2023/03/08 06:40:00;;;;;;;17.20;10.00;;;;;;;;;;6297355;28;20052;-76
2023/03/08 06:43:03;;;;;;;18.25;9.98;;;;;;;;;;6285789;28;20055;-76
2023/03/08 06:46:05;;;;;;;18.85;9.38;;;;;;;;;;6295995;28;20221;-76
2023/03/08 06:49:08;;;;;;;17.20;10.32;;;;;;;;;;6298139;28;20048;-76
2023/03/08 06:52:09;;;;;;;16.77;9.15;;;;;;;;;;6294451;28;20119;-75
2023/03/08 06:55:11;;;;;;;16.63;10.02;;;;;;;;;;6295153;28;20053;-75
2023/03/08 06:58:15;;;;;;;17.15;9.82;;;;;;;;;;6296106;28;20060;-76
2023/03/08 07:01:18;;;;;;;18.00;10.60;;;;;;;;;;6296026;28;20040;-77
2023/03/08 07:04:20;;;;;;;18.40;10.07;;;;;;;;;;6294614;28;20092;-75
2023/03/08 07:07:22;;;;;;;23.02;10.63;;;;;;;;;;6299835;28;20055;-75
2023/03/08 07:10:23;;;;;;;16.70;10.02;;;;;;;;;;6292745;28;20052;-76
2023/03/08 07:13:27;;;;;;;16.60;9.40;;;;;;;;;;6297790;28;20320;-76
2023/03/08 07:16:29;;;;;;;18.83;9.77;;;;;;;;;;6301804;28;20119;-75
2023/03/08 07:19:31;;;;;;;18.83;10.68;;;;;;;;;;6300745;28;20048;-76
2023/03/08 07:22:33;;;;;;;16.83;9.43;;;;;;;;;;6298343;28;20090;-76
2023/03/08 07:25:38;;;;;;;15.38;9.93;;;;;;;;;;6300215;28;20292;-74
2023/03/08 07:28:41;;;;;;;16.52;8.98;;;;;;;;;;6299745;28;20044;-77
2023/03/08 07:31:42;;;;;;;15.15;9.07;;;;;;;;;;6300137;28;20127;-76
2023/03/08 07:34:45;;;;;;;21.48;11.27;;;;;;;;;;6301730;28;20075;-76
2023/03/08 07:37:47;;;;;;;15.50;9.60;;;;;;;;;;6300742;28;20063;-76
2023/03/08 07:40:54;;;;;;;18.80;10.45;;;;;;;;;;6300083;28;20064;-77
2023/03/08 07:43:57;;;;;;;16.52;9.70;;;;;;;;;;6300070;28;20057;-77
2023/03/08 07:46:59;;;;;;;15.93;9.00;;;;;;;;;;6300402;28;20109;-77
2023/03/08 07:50:01;;;;;;;16.15;9.50;;;;;;;;;;6300612;28;20072;-77
2023/03/08 07:53:03;;;;;;;15.68;8.93;;;;;;;;;;6298405;28;20068;-77
2023/03/08 07:56:05;;;;;;;15.80;9.55;;;;;;;;;;6296059;28;20120;-76
2023/03/08 07:59:08;;;;;;;16.75;10.05;;;;;;;;;;6304678;28;20057;-77
2023/03/08 08:02:12;;;;;;;15.47;9.20;;;;;;;;;;6299935;28;20053;-76
2023/03/08 08:05:14;;;;;;;19.13;9.85;;;;;;;;;;6302114;28;20103;-75
2023/03/08 08:08:15;;;;;;;13.10;8.52;;;;;;;;;;6301857;28;20355;-76
2023/03/08 08:11:18;;;;;;;18.42;9.70;;;;;;;;;;6300106;28;20248;-77
2023/03/08 08:14:21;;;;;;;14.48;9.25;;;;;;;;;;6300583;28;20279;-76
2023/03/08 08:17:23;;;;;;;14.75;8.38;;;;;;;;;;6300467;28;20052;-77
2023/03/08 08:20:25;;;;;;;14.43;8.80;;;;;;;;;;6303573;28;20061;-77
2023/03/08 08:23:27;;;;;;;11.93;8.45;;;;;;;;;;6300397;28;21389;-77
2023/03/08 08:26:29;;;;;;;13.43;8.13;;;;;;;;;;6300204;28;20059;-77
2023/03/08 08:29:32;;;;;;;14.23;8.45;;;;;;;;;;6300336;28;20052;-74
2023/03/08 08:32:35;;;;;;;11.93;7.80;;;;;;;;;;6299075;28;20117;-75
2023/03/08 08:35:39;;;;;;;12.55;8.57;;;;;;;;;;6298512;28;20061;-77
2023/03/08 08:38:42;;;;;;;15.43;10.13;;;;;;;;;;6298605;28;20040;-76
2023/03/08 08:41:43;;;;;;;13.70;8.85;;;;;;;;;;6299063;28;20059;-77
2023/03/08 08:44:46;;;;;;;22.73;11.50;;;;;;;;;;6297882;28;20044;-76
2023/03/08 08:47:48;;;;;;;13.40;8.93;;;;;;;;;;6300322;28;20059;-77
2023/03/08 08:50:50;;;;;;;18.67;9.50;;;;;;;;;;6298619;28;20546;-76
2023/03/08 08:53:53;;;;;;;14.93;8.30;;;;;;;;;;6297266;28;20064;-77
2023/03/08 08:56:55;;;;;;;13.88;8.60;;;;;;;;;;6299250;28;20106;-77
2023/03/08 08:59:58;;;;;;;15.15;9.23;;;;;;;;;;6300169;28;20050;-77
2023/03/08 09:03:00;;;;;;;18.75;10.00;;;;;;;;;;6301120;28;20055;-74
2023/03/08 09:06:02;;;;;;;21.77;11.63;;;;;;;;;;6294325;28;20367;-76
2023/03/08 09:09:04;;;;;;;15.88;9.73;;;;;;;;;;6299440;28;20408;-77
2023/03/08 09:12:07;;;;;;;15.77;9.38;;;;;;;;;;6300170;28;20222;-77
2023/03/08 09:15:11;;;;;;;18.58;8.43;;;;;;;;;;6298985;28;20056;-77
2023/03/08 09:18:12;;;;;;;;;;;;;;;;;;6297974;28;20080;-78
2023/03/08 09:21:14;;;;;;;13.80;7.57;;;;;;;;;;6299734;28;20082;-77
2023/03/08 09:24:16;;;;;;;13.98;7.40;;;;;;;;;;6294945;28;20040;-76
2023/03/08 09:27:18;;;;;;;15.30;8.80;;;;;;;;;;6302833;28;20098;-77
2023/03/08 09:30:21;;;;;;;17.58;9.73;;;;;;;;;;6297787;28;20079;-77
2023/03/08 09:33:23;;;;;;;16.30;10.40;;;;;;;;;;6298747;28;20049;-77
2023/03/08 09:36:27;;;;;;;14.30;9.07;;;;;;;;;;6299436;28;20059;-77
2023/03/08 09:39:28;;;;;;;14.02;8.68;;;;;;;;;;6298002;28;20051;-76
2023/03/08 09:42:33;;;;;;;24.25;13.90;;;;;;;;;;6298709;28;20099;-77
2023/03/08 09:45:36;;;;;;;20.85;12.13;;;;;;;;;;6295348;28;20118;-77
2023/03/08 09:48:38;;;;;;;;;;;;;;;;;;6301153;28;20108;-77
2023/03/08 09:51:42;;;;;;;16.30;9.02;;;;;;;;;;6298889;28;19985;-77
2023/03/08 09:54:45;;;;;;;15.52;8.82;;;;;;;;;;6299992;28;20236;-76
2023/03/08 09:57:52;;;;;;;15.18;8.77;;;;;;;;;;6297570;28;20087;-74
2023/03/08 10:00:55;;;;;;;14.70;9.15;;;;;;;;;;6297988;28;20136;-77
2023/03/08 10:04:00;;;;;;;;;;;;;;;;;;6299163;28;20131;-76
2023/03/08 10:07:16;;;;;;;14.45;8.38;;;;;;;;;;6302118;28;19928;-77
2023/03/08 10:10:41;;;;;;;18.10;11.65;;;;;;;;;;6293424;28;20052;-76
2023/03/08 10:13:48;;;;;;;15.02;10.10;;;;;;;;;;6301522;28;20060;-77
2023/03/08 10:16:55;;;;;;;14.35;9.80;;;;;;;;;;6300297;28;20055;-76
2023/03/08 10:19:59;;;;;;;19.00;9.95;;;;;;;;;;6300779;28;20060;-77
2023/03/08 10:23:03;;;;;;;13.55;8.60;;;;;;;;;;6302273;28;20115;-78
2023/03/08 10:26:08;;;;;;;15.23;10.13;;;;;;;;;;6300945;28;20056;-77
2023/03/08 10:29:11;;;;;;;14.57;9.30;;;;;;;;;;6303846;28;20044;-77
2023/03/08 10:32:15;;;;;;;18.20;9.95;;;;;;;;;;6305430;28;20063;-77
2023/03/08 10:35:16;;;;;;;;;;;;;;;;;;6305043;28;20828;-76
2023/03/08 10:38:18;;;;;;;17.50;10.82;;;;;;;;;;6303468;28;19924;-77
2023/03/08 10:41:20;;;;;;;13.00;9.63;;;;;;;;;;6304466;28;20058;-77
2023/03/08 10:44:35;;;;;;;14.00;9.07;;;;;;;;;;6304307;28;20052;-77
2023/03/08 10:47:39;;;;;;;12.65;8.57;;;;;;;;;;6302976;28;20084;-77
2023/03/08 10:50:41;;;;;;;13.80;7.68;;;;;;;;;;6302982;28;20052;-73
2023/03/08 10:53:53;;;;;;;10.45;6.95;;;;;;;;;;6298937;28;20066;-77
2023/03/08 10:56:57;;;;;;;10.98;7.45;;;;;;;;;;6297479;28;20106;-76
2023/03/08 11:00:06;;;;;;;13.98;8.05;;;;;;;;;;6293878;28;20051;-74
2023/03/08 11:03:15;;;;;;;13.38;7.60;;;;;;;;;;6297540;28;20053;-76
2023/03/08 11:06:17;;;;;;;12.52;8.52;;;;;;;;;;6295734;28;20048;-76
2023/03/08 11:09:21;;;;;;;13.68;8.55;;;;;;;;;;6298514;28;20237;-74
2023/03/08 11:12:24;;;;;;;11.93;7.82;;;;;;;;;;6295741;28;20271;-77
2023/03/08 11:15:26;;;;;;;14.25;7.68;;;;;;;;;;6296068;28;20048;-77
2023/03/08 11:18:40;;;;;;;15.27;8.90;;;;;;;;;;6294244;28;20048;-77
2023/03/08 11:21:51;;;;;;;14.95;9.20;;;;;;;;;;6297681;28;20060;-77
2023/03/08 11:25:11;;;;;;;14.75;9.05;;;;;;;;;;6295193;28;20352;-77
2023/03/08 11:28:23;;;;;;;15.45;9.68;;;;;;;;;;6295094;28;20106;-77
2023/03/08 11:31:31;;;;;;;14.30;8.32;;;;;;;;;;6294482;28;20228;-77
2023/03/08 11:35:03;;;;;;;16.48;8.90;;;;;;;;;;6298953;28;20060;-77
2023/03/08 11:38:09;;;;;;;13.20;7.80;;;;;;;;;;6294983;28;20110;-77
2023/03/08 11:41:19;;;;;;;13.98;7.82;;;;;;;;;;6295540;28;20059;-76
2023/03/08 11:44:31;;;;;;;13.27;8.55;;;;;;;;;;6293249;28;20048;-77
2023/03/08 11:48:00;;;;;;;16.73;9.65;;;;;;;;;;6298027;28;20068;-77
2023/03/08 11:51:07;;;;;;;17.30;9.60;;;;;;;;;;6295490;28;20224;-75
2023/03/08 11:54:15;;;;;;;12.95;8.95;;;;;;;;;;6295191;28;20070;-77
2023/03/08 11:57:18;;;;;;;15.15;8.30;;;;;;;;;;6296698;28;20324;-77
2023/03/08 12:00:24;;;;;;;14.73;10.10;;;;;;;;;;6296877;28;20132;-76
2023/03/08 12:03:30;;;;;;;18.33;9.13;;;;;;;;;;6302800;28;20045;-76
2023/03/08 12:06:36;;;;;;;11.13;6.90;;;;;;;;;;6299368;28;20398;-77
2023/03/08 12:09:45;;;;;;;11.23;6.47;;;;;;;;;;6300502;28;20112;-76
2023/03/08 12:12:51;;;;;;;9.13;5.55;;;;;;;;;;6301467;28;20347;-77
2023/03/08 12:15:55;;;;;;;9.93;6.10;;;;;;;;;;6298204;28;20060;-77
2023/03/08 12:19:00;;;;;;;11.30;6.00;;;;;;;;;;6302134;28;20048;-77
2023/03/08 12:22:14;;;;;;;10.30;6.18;;;;;;;;;;6299370;28;20082;-76
2023/03/08 12:25:23;;;;;;;9.85;5.22;;;;;;;;;;6300275;28;20070;-73
2023/03/08 12:28:28;;;;;;;12.10;5.97;;;;;;;;;;6299479;28;20233;-76
2023/03/08 12:31:40;;;;;;;12.55;5.55;;;;;;;;;;6297598;28;20052;-77
2023/03/08 12:34:44;;;;;;;8.93;5.43;;;;;;;;;;6297142;28;20052;-77
2023/03/08 12:37:57;;;;;;;9.23;5.63;;;;;;;;;;6295657;28;20058;-77
2023/03/08 12:40:59;;;;;;;10.13;5.35;;;;;;;;;;6305797;28;20048;-77
2023/03/08 12:44:03;;;;;;;11.10;6.32;;;;;;;;;;6306667;28;20108;-77
2023/03/08 12:47:20;;;;;;;11.95;6.32;;;;;;;;;;6307023;28;20052;-78
2023/03/08 12:50:24;;;;;;;9.40;5.47;;;;;;;;;;6303600;28;20056;-76
2023/03/08 12:53:29;;;;;;;;;;;;;;;;;;6306951;28;20058;-75
2023/03/08 12:56:32;;;;;;;13.93;9.70;;;;;;;;;;6304844;28;19963;-75
2023/03/08 12:59:36;;;;;;;22.50;11.43;;;;;;;;;;6304841;28;20056;-76
2023/03/08 13:02:38;;;;;;;14.02;8.45;;;;;;;;;;6306422;28;20148;-74
2023/03/08 13:05:41;;;;;;;10.57;6.93;;;;;;;;;;6305402;28;20052;-76
2023/03/08 13:08:50;;;;;;;11.82;6.70;;;;;;;;;;6307618;28;20093;-77
2023/03/08 13:11:56;;;;;;;13.25;7.13;;;;;;;;;;6300283;28;20146;-77
2023/03/08 13:15:09;;;;;;;10.48;6.93;;;;;;;;;;6298476;28;20068;-76
2023/03/08 13:18:16;;;;;;;13.43;7.38;;;;;;;;;;6300001;28;20051;-78
2023/03/08 13:21:25;;;;;;;11.88;6.65;;;;;;;;;;6299462;28;20044;-77
2023/03/08 13:24:37;;;;;;;11.85;6.22;;;;;;;;;;6296950;28;20045;-77
2023/03/08 13:27:46;;;;;;;14.13;5.95;;;;;;;;;;6297319;28;20063;-77
2023/03/08 13:30:50;;;;;;;9.40;5.13;;;;;;;;;;6298489;28;20519;-77
2023/03/08 13:33:53;;;;;;;10.50;4.63;;;;;;;;;;6297891;28;20148;-77
2023/03/08 13:36:55;;;;;;;13.40;5.78;;;;;;;;;;6297797;28;20062;-77
2023/03/08 13:39:59;;;;;;;9.43;4.50;;;;;;;;;;6297969;28;20295;-77
2023/03/08 13:43:04;;;;;;;10.48;4.85;;;;;;;;;;6297922;28;20044;-77
2023/03/08 13:46:10;;;;;;;12.30;5.10;;;;;;;;;;6295593;28;20224;-77
2023/03/08 13:49:17;;;;;;;11.43;5.35;;;;;;;;;;6297860;28;20314;-75
2023/03/08 13:52:20;;;;;;;13.20;4.88;;;;;;;;;;6299354;28;20048;-77
2023/03/08 13:55:27;;;;;;;8.70;4.40;;;;;;;;;;6297151;28;20057;-76
2023/03/08 13:58:32;;;;;;;9.60;4.50;;;;;;;;;;6297597;28;20071;-77
2023/03/08 14:01:34;;;;;;;8.43;4.32;;;;;;;;;;6298110;28;20059;-76
2023/03/08 14:04:36;;;;;;;9.20;4.50;;;;;;;;;;6297759;28;20584;-77
2023/03/08 14:07:38;;;;;;;8.82;4.93;;;;;;;;;;6297257;28;20159;-77
2023/03/08 14:10:45;;;;;;;8.48;5.35;;;;;;;;;;6297913;28;21060;-77
2023/03/08 14:13:50;;;;;;;8.60;4.70;;;;;;;;;;6296524;28;20873;-75
2023/03/08 14:16:53;;;;;;;12.38;5.47;;;;;;;;;;6289916;28;20114;-74
2023/03/08 14:19:56;;;;;;;8.80;4.70;;;;;;;;;;6298965;28;20329;-77
2023/03/08 14:22:58;;;;;;;7.35;4.47;;;;;;;;;;6296931;28;20049;-74
2023/03/08 14:26:01;;;;;;;8.07;4.10;;;;;;;;;;6297354;28;20052;-77
2023/03/08 14:29:18;;;;;;;6.90;3.45;;;;;;;;;;6295601;28;20056;-75
2023/03/08 14:32:29;;;;;;;6.95;4.13;;;;;;;;;;6293290;28;20055;-75
2023/03/08 14:35:33;;;;;;;6.03;3.72;;;;;;;;;;6296923;28;20388;-75
2023/03/08 14:38:41;;;;;;;10.80;4.25;;;;;;;;;;6296579;28;20056;-76
2023/03/08 14:41:44;;;;;;;10.70;4.60;;;;;;;;;;6296606;28;20388;-76
2023/03/08 14:44:50;;;;;;;5.25;3.13;;;;;;;;;;6297823;28;20128;-77
2023/03/08 14:47:56;;;;;;;8.55;3.60;;;;;;;;;;6299826;28;20271;-77
2023/03/08 14:51:00;;;;;;;9.23;4.15;;;;;;;;;;6295587;28;20145;-77
2023/03/08 14:54:04;;;;;;;6.13;3.22;;;;;;;;;;6296939;28;20044;-76
2023/03/08 14:57:16;;;;;;;6.40;3.30;;;;;;;;;;6294784;28;20370;-78
2023/03/08 15:00:18;;;;;;;9.23;3.40;;;;;;;;;;6296913;28;20307;-77
2023/03/08 15:03:20;;;;;;;7.57;3.17;;;;;;;;;;6298368;28;20049;-77
2023/03/08 15:06:23;;;;;;;7.15;3.30;;;;;;;;;;6295235;28;20062;-75
2023/03/08 15:09:28;;;;;;;10.70;3.13;;;;;;;;;;6298195;28;20044;-77
2023/03/08 15:12:31;;;;;;;5.75;2.88;;;;;;;;;;6296901;28;20064;-77
2023/03/08 15:15:33;;;;;;;5.47;2.90;;;;;;;;;;6295823;28;20072;-78
2023/03/08 15:18:34;;;;;;;8.65;2.90;;;;;;;;;;6295767;28;20883;-78
2023/03/08 15:21:37;;;;;;;8.85;3.20;;;;;;;;;;6296222;28;20060;-77
2023/03/08 15:24:39;;;;;;;7.30;3.20;;;;;;;;;;6296239;28;20056;-78
2023/03/08 15:27:42;;;;;;;8.77;3.70;;;;;;;;;;6294357;28;20053;-78
2023/03/08 15:30:44;;;;;;;6.30;3.40;;;;;;;;;;6294799;28;20083;-77
2023/03/08 15:33:46;;;;;;;11.98;4.10;;;;;;;;;;6295711;28;20663;-77
2023/03/08 15:36:48;;;;;;;7.53;3.47;;;;;;;;;;6303499;28;20295;-78
2023/03/08 15:39:50;;;;;;;6.20;3.10;;;;;;;;;;6300916;28;20064;-77
2023/03/08 15:42:53;;;;;;;7.28;3.33;;;;;;;;;;6301293;28;20052;-77
2023/03/08 15:45:55;;;;;;;8.82;3.40;;;;;;;;;;6298781;28;20241;-75
2023/03/08 15:48:56;;;;;;;7.43;3.60;;;;;;;;;;6300515;28;20281;-77
2023/03/08 15:51:58;;;;;;;7.55;2.88;;;;;;;;;;6298379;28;20097;-73
2023/03/08 15:55:02;;;;;;;8.93;3.45;;;;;;;;;;6301243;28;20066;-78
2023/03/08 15:58:05;;;;;;;6.25;3.72;;;;;;;;;;6299222;28;20094;-72
2023/03/08 16:01:07;;;;;;;6.13;3.47;;;;;;;;;;6301473;28;20052;-77
2023/03/08 16:04:09;;;;;;;10.48;3.53;;;;;;;;;;6297183;28;20052;-78
2023/03/08 16:07:11;;;;;;;8.35;3.70;;;;;;;;;;6303644;28;20052;-74
2023/03/08 16:10:14;;;;;;;7.18;3.35;;;;;;;;;;6300005;28;20053;-77
2023/03/08 16:13:17;;;;;;;6.82;3.42;;;;;;;;;;6299670;28;20060;-76
2023/03/08 16:16:19;;;;;;;7.65;4.13;;;;;;;;;;6299016;28;20912;-76
2023/03/08 16:19:21;;;;;;;6.32;3.20;;;;;;;;;;6300352;28;20044;-76
2023/03/08 16:22:23;;;;;;;5.97;3.55;;;;;;;;;;6302288;28;20271;-75
2023/03/08 16:25:25;;;;;;;6.13;2.88;;;;;;;;;;6298867;28;20058;-77
2023/03/08 16:28:29;;;;;;;6.07;3.00;;;;;;;;;;6297202;28;20116;-75
2023/03/08 16:31:32;;;;;;;11.13;3.37;;;;;;;;;;6303776;28;20176;-77
2023/03/08 16:34:34;;;;;;;7.45;3.30;;;;;;;;;;6300228;28;20048;-77
2023/03/08 16:37:35;;;;;;;7.30;3.17;;;;;;;;;;6298432;28;20213;-77
2023/03/08 16:40:40;;;;;;;5.20;3.42;;;;;;;;;;6299979;28;20075;-78
2023/03/08 16:43:43;;;;;;;7.35;3.45;;;;;;;;;;6298867;28;20116;-77
2023/03/08 16:46:45;;;;;;;7.00;2.92;;;;;;;;;;6301621;28;20071;-77
2023/03/08 16:49:47;;;;;;;6.70;3.03;;;;;;;;;;6299468;28;20154;-76
2023/03/08 16:52:53;;;;;;;9.43;3.25;;;;;;;;;;6301048;28;20044;-77
2023/03/08 16:55:55;;;;;;;7.57;3.72;;;;;;;;;;6298334;28;20844;-77
2023/03/08 16:59:00;;;;;;;6.25;3.10;;;;;;;;;;6298821;28;20048;-77
2023/03/08 17:02:02;;;;;;;9.07;3.35;;;;;;;;;;6299447;28;20123;-77
2023/03/08 17:05:04;;;;;;;7.53;3.30;;;;;;;;;;6299000;28;20048;-77
2023/03/08 17:08:06;;;;;;;8.75;4.03;;;;;;;;;;6297234;28;20049;-75
2023/03/08 17:11:14;;;;;;;6.28;3.30;;;;;;;;;;6299213;28;20068;-74
2023/03/08 17:14:17;;;;;;;7.82;3.90;;;;;;;;;;6300122;28;20083;-77
2023/03/08 17:17:19;;;;;;;9.23;4.05;;;;;;;;;;6299192;28;20111;-76
2023/03/08 17:20:21;;;;;;;5.82;2.80;;;;;;;;;;6301966;28;20060;-76
2023/03/08 17:23:22;;;;;;;7.13;2.83;;;;;;;;;;6298453;28;20056;-76
2023/03/08 17:26:24;;;;;;;7.78;3.40;;;;;;;;;;6299631;28;20055;-77
2023/03/08 17:29:28;;;;;;;10.35;4.40;;;;;;;;;;6300858;28;20170;-77
2023/03/08 17:32:31;;;;;;;5.63;3.20;;;;;;;;;;6300181;28;20047;-76
2023/03/08 17:35:32;;;;;;;7.15;3.30;;;;;;;;;;6297273;28;20370;-75
2023/03/08 17:38:35;;;;;;;6.30;3.15;;;;;;;;;;6296406;28;20048;-75
2023/03/08 17:41:37;;;;;;;8.27;3.80;;;;;;;;;;6298809;28;20292;-77
2023/03/08 17:44:40;;;;;;;6.57;3.80;;;;;;;;;;6298071;28;20052;-77
2023/03/08 17:47:42;;;;;;;9.20;3.73;;;;;;;;;;6297902;28;20063;-77
2023/03/08 17:50:45;;;;;;;6.00;4.00;;;;;;;;;;6296797;28;20060;-74
2023/03/08 17:53:47;;;;;;;7.60;3.97;;;;;;;;;;6299642;28;20125;-77
2023/03/08 17:56:49;;;;;;;7.63;3.80;;;;;;;;;;6298371;28;20041;-77
2023/03/08 17:59:53;;;;;;;6.63;3.92;;;;;;;;;;6296131;28;20107;-75
2023/03/08 18:02:58;;;;;;;7.97;3.97;;;;;;;;;;6298749;28;20097;-76
2023/03/08 18:05:59;;;;;;;9.27;4.65;;;;;;;;;;6297302;28;20040;-77